sensor_id;sensor_type;location;lat;lon;timestamp;P1;durP1;ratioP1;P2;durP2;ratioP2
22026;SDS011;11177;50.966;10.070;2022-09-03T00:01:28;1.45;;;1.10;;
22026;SDS011;11177;50.966;10.070;2022-09-03T00:04:02;1.10;;;1.00;;
22026;SDS011;11177;50.966;10.070;2022-09-03T00:06:41;1.50;;;1.10;;
22026;SDS011;11177;50.966;10.070;2022-09-03T00:12:01;2.60;;;1.13;;
22026;SDS011;11177;50.966;10.070;2022-09-03T00:14:36;1.42;;;1.20;;
22026;SDS011;11177;50.966;10.070;2022-09-03T00:17:09;3.75;;;1.27;;
22026;SDS011;11177;50.966;10.070;2022-09-03T00:19:43;1.42;;;1.20;;
22026;SDS011;11177;50.966;10.070;2022-09-03T00:22:26;1.05;;;0.80;;
22026;SDS011;11177;50.966;10.070;2022-09-03T00:24:55;1.65;;;0.90;;
22026;SDS011;11177;50.966;10.070;2022-09-03T00:27:26;1.83;;;1.08;;
22026;SDS011;11177;50.966;10.070;2022-09-03T00:30:03;1.95;;;1.00;;
22026;SDS011;11177;50.966;10.070;2022-09-03T00:35:42;1.13;;;1.00;;
22026;SDS011;11177;50.966;10.070;2022-09-03T00:38:32;1.30;;;1.20;;
22026;SDS011;11177;50.966;10.070;2022-09-03T00:41:05;2.88;;;1.15;;
22026;SDS011;11177;50.966;10.070;2022-09-03T00:52:58;3.60;;;1.10;;
22026;SDS011;11177;50.966;10.070;2022-09-03T00:58:36;3.50;;;1.40;;
22026;SDS011;11177;50.966;10.070;2022-09-03T01:01:27;2.03;;;1.33;;
22026;SDS011;11177;50.966;10.070;2022-09-03T01:07:09;2.28;;;1.50;;
22026;SDS011;11177;50.966;10.070;2022-09-03T01:09:49;3.35;;;1.63;;
22026;SDS011;11177;50.966;10.070;2022-09-03T01:13:11;5.85;;;1.80;;
22026;SDS011;11177;50.966;10.070;2022-09-03T01:15:42;3.78;;;1.70;;
22026;SDS011;11177;50.966;10.070;2022-09-03T01:18:41;3.03;;;1.80;;
22026;SDS011;11177;50.966;10.070;2022-09-03T01:25:02;2.38;;;1.60;;
22026;SDS011;11177;50.966;10.070;2022-09-03T01:28:41;3.05;;;1.55;;
22026;SDS011;11177;50.966;10.070;2022-09-03T01:30:39;2.35;;;1.83;;
22026;SDS011;11177;50.966;10.070;2022-09-03T01:33:38;2.60;;;1.60;;
22026;SDS011;11177;50.966;10.070;2022-09-03T01:39:03;2.33;;;1.58;;
22026;SDS011;11177;50.966;10.070;2022-09-03T01:42:21;2.97;;;1.60;;
22026;SDS011;11177;50.966;10.070;2022-09-03T01:45:50;1.80;;;1.70;;
22026;SDS011;11177;50.966;10.070;2022-09-03T01:47:54;3.03;;;1.70;;
22026;SDS011;11177;50.966;10.070;2022-09-03T01:53:44;2.35;;;1.77;;
22026;SDS011;11177;50.966;10.070;2022-09-03T02:00:13;3.15;;;1.95;;
22026;SDS011;11177;50.966;10.070;2022-09-03T02:02:43;3.83;;;1.92;;
22026;SDS011;11177;50.966;10.070;2022-09-03T02:05:15;1.80;;;1.70;;
22026;SDS011;11177;50.966;10.070;2022-09-03T02:07:45;2.60;;;2.00;;
22026;SDS011;11177;50.966;10.070;2022-09-03T02:10:39;2.78;;;1.70;;
22026;SDS011;11177;50.966;10.070;2022-09-03T02:13:13;2.35;;;1.90;;
22026;SDS011;11177;50.966;10.070;2022-09-03T02:15:43;3.35;;;1.75;;
22026;SDS011;11177;50.966;10.070;2022-09-03T02:18:16;4.07;;;1.85;;
22026;SDS011;11177;50.966;10.070;2022-09-03T02:20:47;3.78;;;1.88;;
22026;SDS011;11177;50.966;10.070;2022-09-03T02:23:14;1.98;;;1.77;;
22026;SDS011;11177;50.966;10.070;2022-09-03T02:25:46;1.98;;;1.85;;
22026;SDS011;11177;50.966;10.070;2022-09-03T02:28:16;1.88;;;1.63;;
22026;SDS011;11177;50.966;10.070;2022-09-03T02:30:43;2.42;;;1.60;;
22026;SDS011;11177;50.966;10.070;2022-09-03T02:33:11;4.05;;;1.80;;
22026;SDS011;11177;50.966;10.070;2022-09-03T02:35:38;11.73;;;1.95;;
22026;SDS011;11177;50.966;10.070;2022-09-03T02:38:10;2.17;;;1.83;;
22026;SDS011;11177;50.966;10.070;2022-09-03T02:40:38;1.92;;;1.60;;
22026;SDS011;11177;50.966;10.070;2022-09-03T02:43:07;1.60;;;1.50;;
22026;SDS011;11177;50.966;10.070;2022-09-03T02:45:44;2.30;;;1.80;;
22026;SDS011;11177;50.966;10.070;2022-09-03T02:48:13;2.70;;;1.80;;
22026;SDS011;11177;50.966;10.070;2022-09-03T02:50:43;1.60;;;1.50;;
22026;SDS011;11177;50.966;10.070;2022-09-03T02:53:09;1.98;;;1.60;;
22026;SDS011;11177;50.966;10.070;2022-09-03T02:55:37;1.92;;;1.60;;
22026;SDS011;11177;50.966;10.070;2022-09-03T02:58:04;1.75;;;1.65;;
22026;SDS011;11177;50.966;10.070;2022-09-03T03:00:34;1.98;;;1.60;;
22026;SDS011;11177;50.966;10.070;2022-09-03T03:03:02;1.95;;;1.70;;
22026;SDS011;11177;50.966;10.070;2022-09-03T03:05:35;6.80;;;1.73;;
22026;SDS011;11177;50.966;10.070;2022-09-03T03:08:11;2.83;;;1.60;;
22026;SDS011;11177;50.966;10.070;2022-09-03T03:10:41;1.98;;;1.70;;
22026;SDS011;11177;50.966;10.070;2022-09-03T03:13:11;1.83;;;1.60;;
22026;SDS011;11177;50.966;10.070;2022-09-03T03:15:38;1.83;;;1.70;;
22026;SDS011;11177;50.966;10.070;2022-09-03T03:18:05;3.80;;;1.60;;
22026;SDS011;11177;50.966;10.070;2022-09-03T03:20:33;2.80;;;1.80;;
22026;SDS011;11177;50.966;10.070;2022-09-03T03:23:00;2.95;;;1.77;;
22026;SDS011;11177;50.966;10.070;2022-09-03T03:25:27;2.95;;;1.70;;
22026;SDS011;11177;50.966;10.070;2022-09-03T03:27:54;1.70;;;1.60;;
22026;SDS011;11177;50.966;10.070;2022-09-03T03:30:22;2.20;;;1.75;;
22026;SDS011;11177;50.966;10.070;2022-09-03T03:32:51;5.45;;;1.90;;
22026;SDS011;11177;50.966;10.070;2022-09-03T03:35:19;2.70;;;1.90;;
22026;SDS011;11177;50.966;10.070;2022-09-03T03:37:46;2.65;;;1.92;;
22026;SDS011;11177;50.966;10.070;2022-09-03T03:40:13;2.38;;;2.00;;
22026;SDS011;11177;50.966;10.070;2022-09-03T03:42:41;2.08;;;1.98;;
22026;SDS011;11177;50.966;10.070;2022-09-03T03:45:08;3.05;;;2.00;;
22026;SDS011;11177;50.966;10.070;2022-09-03T03:47:35;2.13;;;1.90;;
22026;SDS011;11177;50.966;10.070;2022-09-03T03:50:03;2.50;;;2.20;;
22026;SDS011;11177;50.966;10.070;2022-09-03T03:52:30;3.15;;;2.20;;
22026;SDS011;11177;50.966;10.070;2022-09-03T03:54:57;2.22;;;1.95;;
22026;SDS011;11177;50.966;10.070;2022-09-03T03:57:24;2.33;;;2.13;;
22026;SDS011;11177;50.966;10.070;2022-09-03T03:59:51;3.72;;;2.30;;
22026;SDS011;11177;50.966;10.070;2022-09-03T04:02:18;2.30;;;2.10;;
22026;SDS011;11177;50.966;10.070;2022-09-03T04:04:45;5.15;;;2.15;;
22026;SDS011;11177;50.966;10.070;2022-09-03T04:07:12;2.40;;;2.20;;
22026;SDS011;11177;50.966;10.070;2022-09-03T04:09:39;3.97;;;2.03;;
22026;SDS011;11177;50.966;10.070;2022-09-03T04:12:07;2.83;;;1.90;;
22026;SDS011;11177;50.966;10.070;2022-09-03T04:14:34;1.85;;;1.75;;
22026;SDS011;11177;50.966;10.070;2022-09-03T04:17:00;2.30;;;2.08;;
22026;SDS011;11177;50.966;10.070;2022-09-03T04:19:28;2.38;;;2.00;;
22026;SDS011;11177;50.966;10.070;2022-09-03T04:21:56;2.10;;;2.00;;
22026;SDS011;11177;50.966;10.070;2022-09-03T04:24:23;2.42;;;2.20;;
22026;SDS011;11177;50.966;10.070;2022-09-03T04:26:49;1.95;;;1.85;;
22026;SDS011;11177;50.966;10.070;2022-09-03T04:29:17;2.50;;;2.00;;
22026;SDS011;11177;50.966;10.070;2022-09-03T04:31:44;3.03;;;2.10;;
22026;SDS011;11177;50.966;10.070;2022-09-03T04:34:31;3.13;;;2.13;;
22026;SDS011;11177;50.966;10.070;2022-09-03T04:36:59;6.68;;;2.40;;
22026;SDS011;11177;50.966;10.070;2022-09-03T04:39:26;5.95;;;2.30;;
22026;SDS011;11177;50.966;10.070;2022-09-03T04:41:53;2.67;;;2.30;;
22026;SDS011;11177;50.966;10.070;2022-09-03T04:44:20;2.20;;;2.00;;
22026;SDS011;11177;50.966;10.070;2022-09-03T04:46:47;1.90;;;1.80;;
22026;SDS011;11177;50.966;10.070;2022-09-03T04:49:15;2.10;;;2.00;;
22026;SDS011;11177;50.966;10.070;2022-09-03T04:51:42;5.15;;;2.22;;
22026;SDS011;11177;50.966;10.070;2022-09-03T04:54:09;2.13;;;2.03;;
22026;SDS011;11177;50.966;10.070;2022-09-03T04:56:37;2.20;;;2.00;;
22026;SDS011;11177;50.966;10.070;2022-09-03T04:59:05;5.65;;;2.20;;
22026;SDS011;11177;50.966;10.070;2022-09-03T05:01:36;3.53;;;1.90;;
22026;SDS011;11177;50.966;10.070;2022-09-03T05:04:05;3.35;;;2.10;;
22026;SDS011;11177;50.966;10.070;2022-09-03T05:06:33;2.22;;;1.90;;
22026;SDS011;11177;50.966;10.070;2022-09-03T05:09:01;2.92;;;1.90;;
22026;SDS011;11177;50.966;10.070;2022-09-03T05:11:27;1.90;;;1.80;;
22026;SDS011;11177;50.966;10.070;2022-09-03T05:13:55;4.70;;;1.98;;
22026;SDS011;11177;50.966;10.070;2022-09-03T05:16:23;2.05;;;1.80;;
22026;SDS011;11177;50.966;10.070;2022-09-03T05:18:51;2.90;;;2.20;;
22026;SDS011;11177;50.966;10.070;2022-09-03T05:21:19;6.50;;;2.13;;
22026;SDS011;11177;50.966;10.070;2022-09-03T05:23:48;2.05;;;1.95;;
22026;SDS011;11177;50.966;10.070;2022-09-03T05:26:17;3.83;;;2.13;;
22026;SDS011;11177;50.966;10.070;2022-09-03T05:28:46;3.83;;;2.17;;
22026;SDS011;11177;50.966;10.070;2022-09-03T05:31:14;4.43;;;2.17;;
22026;SDS011;11177;50.966;10.070;2022-09-03T05:33:46;3.22;;;2.20;;
22026;SDS011;11177;50.966;10.070;2022-09-03T05:36:19;2.97;;;1.92;;
22026;SDS011;11177;50.966;10.070;2022-09-03T05:38:48;2.85;;;1.83;;
22026;SDS011;11177;50.966;10.070;2022-09-03T05:41:17;6.70;;;2.10;;
22026;SDS011;11177;50.966;10.070;2022-09-03T05:43:46;4.50;;;2.00;;
22026;SDS011;11177;50.966;10.070;2022-09-03T05:46:21;5.25;;;2.10;;
22026;SDS011;11177;50.966;10.070;2022-09-03T05:48:56;6.22;;;1.90;;
22026;SDS011;11177;50.966;10.070;2022-09-03T05:51:33;2.35;;;2.15;;
22026;SDS011;11177;50.966;10.070;2022-09-03T05:54:05;2.20;;;2.10;;
22026;SDS011;11177;50.966;10.070;2022-09-03T05:56:34;2.90;;;1.92;;
22026;SDS011;11177;50.966;10.070;2022-09-03T05:59:03;5.90;;;2.38;;
22026;SDS011;11177;50.966;10.070;2022-09-03T06:01:33;4.43;;;2.20;;
22026;SDS011;11177;50.966;10.070;2022-09-03T06:04:02;5.70;;;2.65;;
22026;SDS011;11177;50.966;10.070;2022-09-03T06:06:30;7.05;;;2.17;;
22026;SDS011;11177;50.966;10.070;2022-09-03T06:08:59;2.20;;;1.70;;
22026;SDS011;11177;50.966;10.070;2022-09-03T06:11:28;2.55;;;1.83;;
22026;SDS011;11177;50.966;10.070;2022-09-03T06:13:56;4.57;;;1.90;;
22026;SDS011;11177;50.966;10.070;2022-09-03T06:16:26;3.33;;;2.30;;
22026;SDS011;11177;50.966;10.070;2022-09-03T06:18:58;3.33;;;2.10;;
22026;SDS011;11177;50.966;10.070;2022-09-03T06:21:26;3.78;;;2.20;;
22026;SDS011;11177;50.966;10.070;2022-09-03T06:23:54;2.10;;;1.90;;
22026;SDS011;11177;50.966;10.070;2022-09-03T06:26:25;2.10;;;1.90;;
22026;SDS011;11177;50.966;10.070;2022-09-03T06:28:55;1.85;;;1.70;;
22026;SDS011;11177;50.966;10.070;2022-09-03T06:31:22;5.65;;;1.88;;
22026;SDS011;11177;50.966;10.070;2022-09-03T06:33:50;2.88;;;1.85;;
22026;SDS011;11177;50.966;10.070;2022-09-03T06:36:19;2.13;;;1.92;;
22026;SDS011;11177;50.966;10.070;2022-09-03T06:38:46;3.00;;;1.92;;
22026;SDS011;11177;50.966;10.070;2022-09-03T06:41:15;2.65;;;2.13;;
22026;SDS011;11177;50.966;10.070;2022-09-03T06:43:51;6.78;;;1.70;;
22026;SDS011;11177;50.966;10.070;2022-09-03T06:46:21;2.00;;;1.60;;
22026;SDS011;11177;50.966;10.070;2022-09-03T06:48:49;3.08;;;1.58;;
22026;SDS011;11177;50.966;10.070;2022-09-03T06:51:23;2.67;;;1.65;;
22026;SDS011;11177;50.966;10.070;2022-09-03T06:53:53;1.77;;;1.48;;
22026;SDS011;11177;50.966;10.070;2022-09-03T06:56:31;3.65;;;1.80;;
22026;SDS011;11177;50.966;10.070;2022-09-03T06:59:06;2.38;;;1.65;;
22026;SDS011;11177;50.966;10.070;2022-09-03T07:01:39;2.33;;;1.60;;
22026;SDS011;11177;50.966;10.070;2022-09-03T07:04:10;2.58;;;1.67;;
22026;SDS011;11177;50.966;10.070;2022-09-03T07:06:38;3.53;;;1.67;;
22026;SDS011;11177;50.966;10.070;2022-09-03T07:09:08;3.03;;;1.63;;
22026;SDS011;11177;50.966;10.070;2022-09-03T07:11:36;1.67;;;1.52;;
22026;SDS011;11177;50.966;10.070;2022-09-03T07:14:11;2.97;;;1.73;;
22026;SDS011;11177;50.966;10.070;2022-09-03T07:16:38;1.90;;;1.48;;
22026;SDS011;11177;50.966;10.070;2022-09-03T07:19:07;2.55;;;1.58;;
22026;SDS011;11177;50.966;10.070;2022-09-03T07:21:34;5.18;;;1.70;;
22026;SDS011;11177;50.966;10.070;2022-09-03T07:24:14;1.83;;;1.60;;
22026;SDS011;11177;50.966;10.070;2022-09-03T07:26:41;1.70;;;1.60;;
22026;SDS011;11177;50.966;10.070;2022-09-03T07:29:12;1.50;;;1.40;;
22026;SDS011;11177;50.966;10.070;2022-09-03T07:31:42;1.70;;;1.60;;
22026;SDS011;11177;50.966;10.070;2022-09-03T07:34:10;1.83;;;1.48;;
22026;SDS011;11177;50.966;10.070;2022-09-03T07:36:39;2.58;;;1.60;;
22026;SDS011;11177;50.966;10.070;2022-09-03T07:39:09;2.92;;;1.63;;
22026;SDS011;11177;50.966;10.070;2022-09-03T07:41:37;1.95;;;1.45;;
22026;SDS011;11177;50.966;10.070;2022-09-03T07:44:04;3.35;;;1.45;;
22026;SDS011;11177;50.966;10.070;2022-09-03T07:46:32;3.65;;;1.50;;
22026;SDS011;11177;50.966;10.070;2022-09-03T07:49:01;3.70;;;1.40;;
22026;SDS011;11177;50.966;10.070;2022-09-03T07:51:29;2.05;;;1.27;;
22026;SDS011;11177;50.966;10.070;2022-09-03T07:53:58;2.95;;;1.40;;
22026;SDS011;11177;50.966;10.070;2022-09-03T07:56:30;3.88;;;1.30;;
22026;SDS011;11177;50.966;10.070;2022-09-03T07:58:57;1.75;;;1.45;;
22026;SDS011;11177;50.966;10.070;2022-09-03T08:01:25;2.25;;;1.10;;
22026;SDS011;11177;50.966;10.070;2022-09-03T08:03:54;3.60;;;1.50;;
22026;SDS011;11177;50.966;10.070;2022-09-03T08:06:23;2.00;;;1.30;;
22026;SDS011;11177;50.966;10.070;2022-09-03T08:08:55;3.40;;;1.50;;
22026;SDS011;11177;50.966;10.070;2022-09-03T08:11:30;1.25;;;1.10;;
22026;SDS011;11177;50.966;10.070;2022-09-03T08:13:59;6.20;;;1.30;;
22026;SDS011;11177;50.966;10.070;2022-09-03T08:16:32;1.27;;;1.17;;
22026;SDS011;11177;50.966;10.070;2022-09-03T08:19:01;4.95;;;1.10;;
22026;SDS011;11177;50.966;10.070;2022-09-03T08:21:27;1.40;;;1.30;;
22026;SDS011;11177;50.966;10.070;2022-09-03T08:23:54;1.83;;;1.38;;
22026;SDS011;11177;50.966;10.070;2022-09-03T08:26:28;4.00;;;1.73;;
22026;SDS011;11177;50.966;10.070;2022-09-03T08:28:58;2.83;;;1.42;;
22026;SDS011;11177;50.966;10.070;2022-09-03T08:31:26;3.05;;;1.40;;
22026;SDS011;11177;50.966;10.070;2022-09-03T08:33:55;3.35;;;1.40;;
22026;SDS011;11177;50.966;10.070;2022-09-03T08:38:51;1.95;;;1.30;;
22026;SDS011;11177;50.966;10.070;2022-09-03T08:41:27;1.48;;;1.20;;
22026;SDS011;11177;50.966;10.070;2022-09-03T08:47:20;3.20;;;1.30;;
22026;SDS011;11177;50.966;10.070;2022-09-03T08:49:55;2.97;;;1.15;;
22026;SDS011;11177;50.966;10.070;2022-09-03T08:55:55;3.75;;;1.35;;
22026;SDS011;11177;50.966;10.070;2022-09-03T08:58:26;3.80;;;1.67;;
22026;SDS011;11177;50.966;10.070;2022-09-03T09:01:13;3.75;;;1.10;;
22026;SDS011;11177;50.966;10.070;2022-09-03T09:07:08;5.00;;;1.15;;
22026;SDS011;11177;50.966;10.070;2022-09-03T09:12:36;4.95;;;1.33;;
22026;SDS011;11177;50.966;10.070;2022-09-03T09:15:25;2.30;;;1.33;;
22026;SDS011;11177;50.966;10.070;2022-09-03T09:18:21;1.92;;;1.20;;
22026;SDS011;11177;50.966;10.070;2022-09-03T09:20:57;3.03;;;1.70;;
22026;SDS011;11177;50.966;10.070;2022-09-03T09:23:30;3.17;;;1.23;;
22026;SDS011;11177;50.966;10.070;2022-09-03T09:25:59;2.17;;;1.08;;
22026;SDS011;11177;50.966;10.070;2022-09-03T09:28:32;6.88;;;1.20;;
22026;SDS011;11177;50.966;10.070;2022-09-03T09:31:01;3.42;;;1.30;;
22026;SDS011;11177;50.966;10.070;2022-09-03T09:33:30;3.05;;;1.40;;
22026;SDS011;11177;50.966;10.070;2022-09-03T09:36:11;1.85;;;1.40;;
22026;SDS011;11177;50.966;10.070;2022-09-03T09:38:45;1.33;;;1.05;;
22026;SDS011;11177;50.966;10.070;2022-09-03T09:41:17;1.30;;;1.20;;
22026;SDS011;11177;50.966;10.070;2022-09-03T09:43:46;3.13;;;1.30;;
22026;SDS011;11177;50.966;10.070;2022-09-03T09:46:20;3.15;;;1.27;;
22026;SDS011;11177;50.966;10.070;2022-09-03T09:48:53;2.20;;;1.20;;
22026;SDS011;11177;50.966;10.070;2022-09-03T09:56:36;2.42;;;1.17;;
22026;SDS011;11177;50.966;10.070;2022-09-03T09:59:07;5.82;;;1.50;;
22026;SDS011;11177;50.966;10.070;2022-09-03T10:01:37;3.05;;;1.20;;
22026;SDS011;11177;50.966;10.070;2022-09-03T10:06:53;1.90;;;1.00;;
22026;SDS011;11177;50.966;10.070;2022-09-03T10:09:29;1.95;;;1.20;;
22026;SDS011;11177;50.966;10.070;2022-09-03T10:12:31;1.85;;;1.25;;
22026;SDS011;11177;50.966;10.070;2022-09-03T10:15:00;1.35;;;1.25;;
22026;SDS011;11177;50.966;10.070;2022-09-03T10:17:55;4.40;;;1.50;;
22026;SDS011;11177;50.966;10.070;2022-09-03T10:23:50;2.58;;;1.20;;
22026;SDS011;11177;50.966;10.070;2022-09-03T10:26:23;2.45;;;1.30;;
22026;SDS011;11177;50.966;10.070;2022-09-03T10:29:00;1.77;;;1.20;;
22026;SDS011;11177;50.966;10.070;2022-09-03T10:31:33;1.45;;;1.20;;
22026;SDS011;11177;50.966;10.070;2022-09-03T10:34:27;4.35;;;1.30;;
22026;SDS011;11177;50.966;10.070;2022-09-03T10:37:34;1.20;;;1.10;;
22026;SDS011;11177;50.966;10.070;2022-09-03T10:40:09;4.35;;;1.10;;
22026;SDS011;11177;50.966;10.070;2022-09-03T10:43:04;1.42;;;1.33;;
22026;SDS011;11177;50.966;10.070;2022-09-03T10:46:01;2.25;;;1.05;;
22026;SDS011;11177;50.966;10.070;2022-09-03T10:57:53;1.23;;;1.13;;
22026;SDS011;11177;50.966;10.070;2022-09-03T11:00:31;2.95;;;1.10;;
22026;SDS011;11177;50.966;10.070;2022-09-03T11:03:10;1.08;;;0.98;;
22026;SDS011;11177;50.966;10.070;2022-09-03T11:08:33;2.35;;;1.10;;
22026;SDS011;11177;50.966;10.070;2022-09-03T11:11:16;2.40;;;1.20;;
22026;SDS011;11177;50.966;10.070;2022-09-03T11:14:15;7.10;;;1.33;;
22026;SDS011;11177;50.966;10.070;2022-09-03T11:16:57;3.35;;;1.08;;
22026;SDS011;11177;50.966;10.070;2022-09-03T11:19:29;2.95;;;1.10;;
22026;SDS011;11177;50.966;10.070;2022-09-03T11:24:27;2.63;;;1.10;;
22026;SDS011;11177;50.966;10.070;2022-09-03T11:27:02;1.52;;;1.15;;
22026;SDS011;11177;50.966;10.070;2022-09-03T11:29:43;3.58;;;1.10;;
22026;SDS011;11177;50.966;10.070;2022-09-03T11:32:32;1.42;;;1.02;;
22026;SDS011;11177;50.966;10.070;2022-09-03T11:35:40;6.20;;;1.13;;
22026;SDS011;11177;50.966;10.070;2022-09-03T11:38:19;3.20;;;1.10;;
22026;SDS011;11177;50.966;10.070;2022-09-03T11:40:57;1.30;;;1.00;;
22026;SDS011;11177;50.966;10.070;2022-09-03T11:43:46;1.30;;;1.08;;
22026;SDS011;11177;50.966;10.070;2022-09-03T11:48:48;6.95;;;1.60;;
22026;SDS011;11177;50.966;10.070;2022-09-03T11:51:17;1.00;;;1.00;;
22026;SDS011;11177;50.966;10.070;2022-09-03T12:01:55;0.98;;;0.98;;
22026;SDS011;11177;50.966;10.070;2022-09-03T12:07:19;3.60;;;1.00;;
22026;SDS011;11177;50.966;10.070;2022-09-03T12:16:03;2.35;;;1.00;;
22026;SDS011;11177;50.966;10.070;2022-09-03T12:18:43;2.30;;;1.00;;
22026;SDS011;11177;50.966;10.070;2022-09-03T12:21:11;3.67;;;1.13;;
22026;SDS011;11177;50.966;10.070;2022-09-03T12:23:41;1.80;;;1.00;;
22026;SDS011;11177;50.966;10.070;2022-09-03T12:26:37;2.67;;;0.90;;
22026;SDS011;11177;50.966;10.070;2022-09-03T12:29:05;3.00;;;0.90;;
22026;SDS011;11177;50.966;10.070;2022-09-03T12:31:43;1.10;;;1.00;;
22026;SDS011;11177;50.966;10.070;2022-09-03T12:34:13;2.10;;;1.10;;
22026;SDS011;11177;50.966;10.070;2022-09-03T12:36:49;1.30;;;1.10;;
22026;SDS011;11177;50.966;10.070;2022-09-03T12:39:20;1.63;;;0.93;;
22026;SDS011;11177;50.966;10.070;2022-09-03T12:42:11;1.55;;;0.93;;
22026;SDS011;11177;50.966;10.070;2022-09-03T12:44:49;3.65;;;1.10;;
22026;SDS011;11177;50.966;10.070;2022-09-03T12:47:17;0.93;;;0.90;;
22026;SDS011;11177;50.966;10.070;2022-09-03T12:50:07;1.17;;;0.90;;
22026;SDS011;11177;50.966;10.070;2022-09-03T12:55:32;2.75;;;0.90;;
22026;SDS011;11177;50.966;10.070;2022-09-03T12:58:22;1.48;;;0.90;;
22026;SDS011;11177;50.966;10.070;2022-09-03T13:01:12;1.35;;;0.90;;
22026;SDS011;11177;50.966;10.070;2022-09-03T13:06:20;1.60;;;1.15;;
22026;SDS011;11177;50.966;10.070;2022-09-03T13:08:49;1.95;;;0.95;;
22026;SDS011;11177;50.966;10.070;2022-09-03T13:11:20;4.43;;;0.95;;
22026;SDS011;11177;50.966;10.070;2022-09-03T13:13:54;3.88;;;0.85;;
22026;SDS011;11177;50.966;10.070;2022-09-03T13:23:01;1.33;;;1.00;;
22026;SDS011;11177;50.966;10.070;2022-09-03T13:25:41;4.68;;;1.20;;
22026;SDS011;11177;50.966;10.070;2022-09-03T13:28:49;1.92;;;1.10;;
22026;SDS011;11177;50.966;10.070;2022-09-03T13:31:46;2.97;;;0.90;;
22026;SDS011;11177;50.966;10.070;2022-09-03T13:34:39;1.00;;;0.93;;
22026;SDS011;11177;50.966;10.070;2022-09-03T13:37:57;2.65;;;1.00;;
22026;SDS011;11177;50.966;10.070;2022-09-03T13:40:02;5.88;;;1.20;;
22026;SDS011;11177;50.966;10.070;2022-09-03T13:42:44;1.50;;;0.90;;
22026;SDS011;11177;50.966;10.070;2022-09-03T13:45:24;2.80;;;0.98;;
22026;SDS011;11177;50.966;10.070;2022-09-03T13:48:05;1.73;;;0.90;;
22026;SDS011;11177;50.966;10.070;2022-09-03T13:51:12;1.67;;;1.08;;
22026;SDS011;11177;50.966;10.070;2022-09-03T13:54:03;2.58;;;1.08;;
22026;SDS011;11177;50.966;10.070;2022-09-03T13:57:03;4.90;;;1.20;;
22026;SDS011;11177;50.966;10.070;2022-09-03T13:59:46;1.90;;;1.00;;
22026;SDS011;11177;50.966;10.070;2022-09-03T14:02:22;3.35;;;1.10;;
22026;SDS011;11177;50.966;10.070;2022-09-03T14:05:05;1.73;;;1.10;;
22026;SDS011;11177;50.966;10.070;2022-09-03T14:13:54;4.72;;;1.20;;
22026;SDS011;11177;50.966;10.070;2022-09-03T14:19:36;14.05;;;1.58;;
22026;SDS011;11177;50.966;10.070;2022-09-03T14:22:22;5.30;;;1.30;;
22026;SDS011;11177;50.966;10.070;2022-09-03T14:24:53;5.35;;;1.40;;
22026;SDS011;11177;50.966;10.070;2022-09-03T14:27:24;2.00;;;1.30;;
22026;SDS011;11177;50.966;10.070;2022-09-03T14:29:59;2.10;;;1.38;;
22026;SDS011;11177;50.966;10.070;2022-09-03T14:32:37;1.95;;;1.20;;
22026;SDS011;11177;50.966;10.070;2022-09-03T14:48:35;14.95;;;2.33;;
22026;SDS011;11177;50.966;10.070;2022-09-03T14:53:30;7.05;;;1.50;;
22026;SDS011;11177;50.966;10.070;2022-09-03T14:56:32;3.35;;;1.60;;
22026;SDS011;11177;50.966;10.070;2022-09-03T15:08:48;10.48;;;2.97;;
22026;SDS011;11177;50.966;10.070;2022-09-03T15:12:09;6.43;;;2.75;;
22026;SDS011;11177;50.966;10.070;2022-09-03T15:20:25;3.53;;;1.20;;
22026;SDS011;11177;50.966;10.070;2022-09-03T15:29:34;2.33;;;1.30;;
22026;SDS011;11177;50.966;10.070;2022-09-03T15:38:37;2.40;;;1.50;;
22026;SDS011;11177;50.966;10.070;2022-09-03T15:41:16;1.87;;;1.50;;
22026;SDS011;11177;50.966;10.070;2022-09-03T15:43:58;1.52;;;1.40;;
22026;SDS011;11177;50.966;10.070;2022-09-03T15:52:31;2.33;;;1.40;;
22026;SDS011;11177;50.966;10.070;2022-09-03T15:55:12;5.53;;;1.40;;
22026;SDS011;11177;50.966;10.070;2022-09-03T16:01:05;4.15;;;1.75;;
22026;SDS011;11177;50.966;10.070;2022-09-03T16:04:11;1.58;;;1.42;;
22026;SDS011;11177;50.966;10.070;2022-09-03T16:07:15;1.60;;;1.50;;
22026;SDS011;11177;50.966;10.070;2022-09-03T16:09:50;2.10;;;1.20;;
22026;SDS011;11177;50.966;10.070;2022-09-03T16:12:56;2.95;;;1.67;;
22026;SDS011;11177;50.966;10.070;2022-09-03T16:16:01;5.28;;;1.50;;
22026;SDS011;11177;50.966;10.070;2022-09-03T16:18:39;2.00;;;1.50;;
22026;SDS011;11177;50.966;10.070;2022-09-03T16:24:31;2.03;;;1.70;;
22026;SDS011;11177;50.966;10.070;2022-09-03T16:27:07;3.97;;;1.70;;
22026;SDS011;11177;50.966;10.070;2022-09-03T16:29:38;2.53;;;1.60;;
22026;SDS011;11177;50.966;10.070;2022-09-03T16:35:27;2.95;;;1.80;;
22026;SDS011;11177;50.966;10.070;2022-09-03T16:38:08;6.00;;;1.30;;
22026;SDS011;11177;50.966;10.070;2022-09-03T16:41:15;3.65;;;1.30;;
22026;SDS011;11177;50.966;10.070;2022-09-03T16:46:51;2.33;;;1.70;;
22026;SDS011;11177;50.966;10.070;2022-09-03T16:52:48;7.80;;;1.83;;
22026;SDS011;11177;50.966;10.070;2022-09-03T17:02:19;4.40;;;2.90;;
22026;SDS011;11177;50.966;10.070;2022-09-03T17:05:18;1.80;;;1.70;;
22026;SDS011;11177;50.966;10.070;2022-09-03T17:11:37;2.38;;;1.30;;
22026;SDS011;11177;50.966;10.070;2022-09-03T17:14:16;1.50;;;1.40;;
22026;SDS011;11177;50.966;10.070;2022-09-03T17:35:01;2.20;;;1.40;;
22026;SDS011;11177;50.966;10.070;2022-09-03T17:37:55;1.67;;;1.55;;
22026;SDS011;11177;50.966;10.070;2022-09-03T17:40:40;1.83;;;1.45;;
22026;SDS011;11177;50.966;10.070;2022-09-03T17:43:51;2.85;;;1.50;;
22026;SDS011;11177;50.966;10.070;2022-09-03T17:49:42;1.60;;;1.50;;
22026;SDS011;11177;50.966;10.070;2022-09-03T17:52:24;3.80;;;1.50;;
22026;SDS011;11177;50.966;10.070;2022-09-03T17:55:01;4.80;;;1.70;;
22026;SDS011;11177;50.966;10.070;2022-09-03T17:57:49;5.07;;;1.75;;
22026;SDS011;11177;50.966;10.070;2022-09-03T18:00:21;1.88;;;1.52;;
22026;SDS011;11177;50.966;10.070;2022-09-03T18:07:53;4.85;;;1.80;;
22026;SDS011;11177;50.966;10.070;2022-09-03T18:11:10;2.25;;;2.00;;
22026;SDS011;11177;50.966;10.070;2022-09-03T18:13:42;2.65;;;2.10;;
22026;SDS011;11177;50.966;10.070;2022-09-03T18:16:14;4.17;;;1.90;;
22026;SDS011;11177;50.966;10.070;2022-09-03T18:18:50;4.07;;;2.10;;
22026;SDS011;11177;50.966;10.070;2022-09-03T18:21:22;2.17;;;1.95;;
22026;SDS011;11177;50.966;10.070;2022-09-03T18:24:15;9.35;;;5.90;;
22026;SDS011;11177;50.966;10.070;2022-09-03T18:27:10;7.80;;;4.28;;
22026;SDS011;11177;50.966;10.070;2022-09-03T18:32:56;6.57;;;2.83;;
22026;SDS011;11177;50.966;10.070;2022-09-03T18:35:42;5.57;;;3.03;;
22026;SDS011;11177;50.966;10.070;2022-09-03T18:38:33;3.65;;;2.78;;
22026;SDS011;11177;50.966;10.070;2022-09-03T18:41:30;3.58;;;3.00;;
22026;SDS011;11177;50.966;10.070;2022-09-03T18:52:05;4.70;;;2.20;;
22026;SDS011;11177;50.966;10.070;2022-09-03T18:55:07;2.65;;;1.80;;
22026;SDS011;11177;50.966;10.070;2022-09-03T18:58:24;5.15;;;2.53;;
22026;SDS011;11177;50.966;10.070;2022-09-03T19:07:50;5.18;;;3.35;;
22026;SDS011;11177;50.966;10.070;2022-09-03T19:13:39;3.00;;;2.70;;
22026;SDS011;11177;50.966;10.070;2022-09-03T19:16:35;3.28;;;2.08;;
22026;SDS011;11177;50.966;10.070;2022-09-03T19:22:41;3.67;;;1.90;;
22026;SDS011;11177;50.966;10.070;2022-09-03T19:25:28;2.45;;;1.60;;
22026;SDS011;11177;50.966;10.070;2022-09-03T19:28:16;1.92;;;1.70;;
22026;SDS011;11177;50.966;10.070;2022-09-03T19:31:23;2.50;;;1.77;;